createdAt,value
2022-10-11T00:00:20.032Z,20.17
2022-10-11T00:00:51.492Z,20.17
2022-10-11T00:01:22.970Z,20.17
2022-10-11T00:01:54.369Z,20.16
2022-10-11T00:02:26.562Z,20.16
2022-10-11T00:02:58.033Z,20.16
2022-10-11T00:03:29.438Z,20.15
2022-10-11T00:04:00.921Z,20.15
2022-10-11T00:04:32.412Z,20.16
2022-10-11T00:05:03.795Z,20.15
2022-10-11T00:05:35.185Z,20.15
2022-10-11T00:06:07.063Z,20.14
2022-10-11T00:06:38.796Z,20.15
2022-10-11T00:07:10.200Z,20.14
2022-10-11T00:07:41.607Z,20.14
2022-10-11T00:08:13.000Z,20.13
2022-10-11T00:08:44.390Z,20.13
2022-10-11T00:09:15.882Z,20.13
2022-10-11T00:09:47.273Z,20.12
2022-10-11T00:10:18.680Z,20.12
2022-10-11T00:10:50.122Z,20.12
2022-10-11T00:11:21.520Z,20.12
2022-10-11T00:11:52.913Z,20.12
2022-10-11T00:12:24.303Z,20.11
2022-10-11T00:12:55.716Z,20.12
2022-10-11T00:13:27.100Z,20.11
2022-10-11T00:13:58.492Z,20.11
2022-10-11T00:14:29.908Z,20.11
2022-10-11T00:15:01.316Z,20.11
2022-10-11T00:15:32.705Z,20.10
2022-10-11T00:16:04.385Z,20.09
2022-10-11T00:16:36.042Z,20.08
2022-10-11T00:17:07.441Z,20.09
2022-10-11T00:17:38.835Z,20.07
2022-10-11T00:18:10.240Z,20.08
2022-10-11T00:18:41.626Z,20.07
2022-10-11T00:19:13.096Z,20.08
2022-10-11T00:19:44.495Z,20.06
2022-10-11T00:20:15.895Z,20.07
2022-10-11T00:20:47.285Z,20.07
2022-10-11T00:21:18.684Z,20.06
2022-10-11T00:21:50.108Z,20.06
2022-10-11T00:22:21.501Z,20.05
2022-10-11T00:22:52.899Z,20.05
2022-10-11T00:23:24.294Z,20.05
2022-10-11T00:23:55.680Z,20.05
2022-10-11T00:24:27.141Z,20.06
2022-10-11T00:24:58.543Z,20.05
2022-10-11T00:25:29.943Z,20.05
2022-10-11T00:26:01.524Z,20.05
2022-10-11T00:26:33.216Z,20.04
2022-10-11T00:27:04.594Z,20.05
2022-10-11T00:27:35.997Z,20.04
2022-10-11T00:28:07.487Z,20.04
2022-10-11T00:28:38.996Z,20.03
2022-10-11T00:29:10.480Z,20.03
2022-10-11T00:29:42.013Z,20.03
2022-10-11T00:30:13.404Z,20.02
2022-10-11T00:30:44.799Z,20.03
2022-10-11T00:31:16.189Z,20.03
2022-10-11T00:31:47.597Z,20.03
2022-10-11T00:32:18.981Z,20.03
2022-10-11T00:32:50.363Z,20.02
2022-10-11T00:33:21.748Z,20.02
2022-10-11T00:33:53.136Z,20.02
2022-10-11T00:34:24.540Z,20.02
2022-10-11T00:34:55.972Z,20.02
2022-10-11T00:35:27.366Z,20.00
2022-10-11T00:35:58.757Z,20.00
2022-10-11T00:36:30.149Z,20.01
2022-10-11T00:37:01.549Z,20.01
2022-10-11T00:37:32.943Z,20.00
2022-10-11T00:38:04.324Z,20.00
2022-10-11T00:38:35.713Z,19.99
2022-10-11T00:39:07.097Z,19.99
2022-10-11T00:39:38.502Z,20.00
2022-10-11T00:40:10.047Z,19.99
2022-10-11T00:40:41.443Z,19.99
2022-10-11T00:41:12.843Z,19.98
2022-10-11T00:41:44.227Z,19.98
2022-10-11T00:42:15.618Z,19.99
2022-10-11T00:42:47.025Z,19.97
2022-10-11T00:43:18.424Z,19.98
2022-10-11T00:43:49.812Z,19.98
2022-10-11T00:44:21.223Z,19.98
2022-10-11T00:44:52.614Z,19.98
2022-10-11T00:45:24.192Z,19.97
2022-10-11T00:45:55.590Z,19.97
2022-10-11T00:46:27.004Z,19.96
2022-10-11T00:46:58.387Z,19.96
2022-10-11T00:47:29.792Z,19.96
2022-10-11T00:48:01.175Z,19.95
2022-10-11T00:48:32.559Z,19.94
2022-10-11T00:49:03.947Z,19.94
2022-10-11T00:49:35.350Z,19.94
2022-10-11T00:50:06.756Z,19.93
2022-10-11T00:50:38.286Z,19.93
2022-10-11T00:51:09.671Z,19.94
2022-10-11T00:51:41.062Z,19.93
2022-10-11T00:52:12.451Z,19.93
2022-10-11T00:52:43.841Z,19.92
2022-10-11T00:53:15.259Z,19.92
2022-10-11T00:53:46.653Z,19.92
2022-10-11T00:54:18.048Z,19.92
2022-10-11T00:54:49.457Z,19.92
2022-10-11T00:55:20.841Z,19.92
2022-10-11T00:55:52.310Z,19.91
2022-10-11T00:56:23.720Z,19.91
2022-10-11T00:56:55.111Z,19.91
2022-10-11T00:57:26.497Z,19.91
2022-10-11T00:57:57.906Z,19.90
2022-10-11T00:58:29.310Z,19.91
2022-10-11T00:59:00.716Z,19.90
2022-10-11T00:59:32.105Z,19.90
2022-10-11T01:00:03.491Z,19.90
2022-10-11T01:00:34.882Z,19.90
2022-10-11T01:01:06.422Z,19.90
2022-10-11T01:01:37.955Z,19.89
2022-10-11T01:02:09.381Z,19.89
2022-10-11T01:02:40.792Z,19.89
2022-10-11T01:03:12.182Z,19.89
2022-10-11T01:03:43.573Z,19.89
2022-10-11T01:04:15.133Z,19.88
2022-10-11T01:04:46.530Z,19.88
2022-10-11T01:05:29.127Z,19.88
2022-10-11T01:06:01.609Z,19.87
2022-10-11T01:06:33.154Z,19.87
2022-10-11T01:07:04.555Z,19.87
2022-10-11T01:07:35.940Z,19.87
2022-10-11T01:08:07.329Z,19.86
2022-10-11T01:08:38.745Z,19.85
2022-10-11T01:09:10.138Z,19.85
2022-10-11T01:09:41.530Z,19.86
2022-10-11T01:10:12.917Z,19.86
2022-10-11T01:10:44.312Z,19.85
2022-10-11T01:11:15.744Z,19.85
2022-10-11T01:11:47.150Z,19.85
2022-10-11T01:12:18.536Z,19.85
2022-10-11T01:12:49.925Z,19.85
2022-10-11T01:13:21.315Z,19.83
2022-10-11T01:13:52.720Z,19.84
2022-10-11T01:14:24.105Z,19.83
2022-10-11T01:14:55.497Z,19.84
2022-10-11T01:15:26.891Z,19.84
2022-10-11T01:15:58.286Z,19.83
2022-10-11T01:16:29.825Z,19.84
2022-10-11T01:17:01.226Z,19.83
2022-10-11T01:17:32.617Z,19.83
2022-10-11T01:18:04.028Z,19.83
2022-10-11T01:18:35.421Z,19.82
2022-10-11T01:19:06.804Z,19.82
2022-10-11T01:19:38.204Z,19.82
2022-10-11T01:20:09.594Z,19.83
2022-10-11T01:20:40.984Z,19.82
2022-10-11T01:21:12.392Z,19.82
2022-10-11T01:21:43.872Z,19.81
2022-10-11T01:22:15.280Z,19.81
2022-10-11T01:22:46.674Z,19.81
2022-10-11T01:23:18.069Z,19.81
2022-10-11T01:23:49.476Z,19.81
2022-10-11T01:24:20.866Z,19.81
2022-10-11T01:24:52.253Z,19.79
2022-10-11T01:25:23.663Z,19.79
2022-10-11T01:25:55.049Z,19.78
2022-10-11T01:26:26.452Z,19.79
2022-10-11T01:26:57.930Z,19.79
2022-10-11T01:27:29.322Z,19.78
2022-10-11T01:28:00.734Z,19.79
2022-10-11T01:28:32.180Z,19.78
2022-10-11T01:29:03.609Z,19.78
2022-10-11T01:29:35.012Z,19.78
2022-10-11T01:30:06.422Z,19.77
2022-10-11T01:30:37.828Z,19.77
2022-10-11T01:31:09.228Z,19.76
2022-10-11T01:31:40.631Z,19.77
2022-10-11T01:32:12.114Z,19.77
2022-10-11T01:32:43.562Z,19.76
2022-10-11T01:33:14.956Z,19.76
2022-10-11T01:33:46.339Z,19.76
2022-10-11T01:34:17.726Z,19.76
2022-10-11T01:34:49.122Z,19.77
2022-10-11T01:35:20.516Z,19.76
2022-10-11T01:35:51.906Z,19.76
2022-10-11T01:36:23.288Z,19.76
2022-10-11T01:36:54.673Z,19.75
2022-10-11T01:37:26.152Z,19.74
2022-10-11T01:37:57.548Z,19.74
2022-10-11T01:38:28.941Z,19.74
2022-10-11T01:39:00.328Z,19.74
2022-10-11T01:39:31.780Z,19.73
2022-10-11T01:40:03.174Z,19.74
2022-10-11T01:40:34.568Z,19.74
2022-10-11T01:41:05.951Z,19.73
2022-10-11T01:41:37.352Z,19.73
2022-10-11T01:42:08.740Z,19.73
2022-10-11T01:42:40.214Z,19.72
2022-10-11T01:43:11.609Z,19.73
2022-10-11T01:43:42.993Z,19.73
2022-10-11T01:44:14.383Z,19.72
2022-10-11T01:44:45.773Z,19.72
2022-10-11T01:45:17.157Z,19.71
2022-10-11T01:45:48.546Z,19.71
2022-10-11T01:46:20.005Z,19.71
2022-10-11T01:46:51.400Z,19.70
2022-10-11T01:47:22.780Z,19.71
2022-10-11T01:47:54.299Z,19.70
2022-10-11T01:48:25.703Z,19.70
2022-10-11T01:48:57.111Z,19.70
2022-10-11T01:49:28.499Z,19.70
2022-10-11T01:49:59.889Z,19.69
2022-10-11T01:50:31.271Z,19.69
2022-10-11T01:51:02.661Z,19.69
2022-10-11T01:51:34.068Z,19.69
2022-10-11T01:52:05.477Z,19.68
2022-10-11T01:52:36.866Z,19.68
2022-10-11T01:53:08.433Z,19.69
2022-10-11T01:53:39.820Z,19.69
2022-10-11T01:54:11.230Z,19.68
2022-10-11T01:55:08.059Z,19.69
2022-10-11T01:55:33.992Z,19.68
2022-10-11T01:56:05.860Z,19.68
2022-10-11T01:56:37.586Z,19.68
2022-10-11T01:57:08.977Z,19.69
2022-10-11T01:57:40.393Z,19.68
2022-10-11T01:58:11.895Z,19.68
2022-10-11T01:58:43.293Z,19.68
2022-10-11T01:59:14.684Z,19.67
2022-10-11T01:59:46.068Z,19.67
2022-10-11T02:00:17.450Z,19.67
2022-10-11T02:00:48.852Z,19.68
2022-10-11T02:01:20.341Z,19.66
2022-10-11T02:01:51.876Z,19.66
2022-10-11T02:02:23.279Z,19.66
2022-10-11T02:02:54.665Z,19.66
2022-10-11T02:03:26.128Z,19.67
2022-10-11T02:03:57.533Z,19.66
2022-10-11T02:04:28.988Z,19.66
2022-10-11T02:05:00.377Z,19.65
2022-10-11T02:05:31.789Z,19.65
2022-10-11T02:06:03.565Z,19.66
2022-10-11T02:06:35.300Z,19.65
2022-10-11T02:07:06.737Z,19.65
2022-10-11T02:07:38.148Z,19.65
2022-10-11T02:08:09.532Z,19.64
2022-10-11T02:08:41.001Z,19.64
2022-10-11T02:09:12.429Z,19.64
2022-10-11T02:09:43.836Z,19.64
2022-10-11T02:10:15.229Z,19.64
2022-10-11T02:10:46.615Z,19.63
2022-10-11T02:11:18.032Z,19.62
2022-10-11T02:11:49.464Z,19.63
2022-10-11T02:12:20.848Z,19.63
2022-10-11T02:12:52.240Z,19.63
2022-10-11T02:13:23.637Z,19.62
2022-10-11T02:13:55.157Z,19.63
2022-10-11T02:14:26.563Z,19.63
2022-10-11T02:14:57.952Z,19.63
2022-10-11T02:15:29.345Z,19.63
2022-10-11T02:16:00.748Z,19.62
2022-10-11T02:16:32.139Z,19.62
2022-10-11T02:17:03.532Z,19.62
2022-10-11T02:17:34.933Z,19.61
2022-10-11T02:18:06.325Z,19.62
2022-10-11T02:18:37.716Z,19.62
2022-10-11T02:19:09.130Z,19.61
2022-10-11T02:19:40.548Z,19.61
2022-10-11T02:20:11.935Z,19.61
2022-10-11T02:20:43.347Z,19.61
2022-10-11T02:21:14.754Z,19.61
2022-10-11T02:21:46.164Z,19.61
2022-10-11T02:22:17.567Z,19.61
2022-10-11T02:22:48.965Z,19.61
2022-10-11T02:23:20.348Z,19.61
2022-10-11T02:23:51.820Z,19.61
2022-10-11T02:24:23.374Z,19.61
2022-10-11T02:24:54.760Z,19.60
2022-10-11T02:25:26.152Z,19.60
2022-10-11T02:25:57.566Z,19.60
2022-10-11T02:26:28.962Z,19.59
2022-10-11T02:27:00.377Z,19.60
2022-10-11T02:27:31.784Z,19.60
2022-10-11T02:28:03.175Z,19.58
2022-10-11T02:28:34.663Z,19.59
2022-10-11T02:29:06.196Z,19.58
2022-10-11T02:29:37.590Z,19.58
2022-10-11T02:30:08.985Z,19.59
2022-10-11T02:30:40.378Z,19.59
2022-10-11T02:31:11.765Z,19.58
2022-10-11T02:31:43.149Z,19.58
2022-10-11T02:32:14.550Z,19.57
2022-10-11T02:32:45.938Z,19.56
2022-10-11T02:33:17.334Z,19.56
2022-10-11T02:33:48.737Z,19.57
2022-10-11T02:34:20.266Z,19.57
2022-10-11T02:34:51.651Z,19.56
2022-10-11T02:35:23.078Z,19.57
2022-10-11T02:35:54.488Z,19.56
2022-10-11T02:36:25.991Z,19.56
2022-10-11T02:36:57.375Z,19.56
2022-10-11T02:37:28.777Z,19.57
2022-10-11T02:38:00.167Z,19.57
2022-10-11T02:38:31.559Z,19.56
2022-10-11T02:39:02.962Z,19.57
2022-10-11T02:39:34.412Z,19.56
2022-10-11T02:40:05.804Z,19.56
2022-10-11T02:40:37.217Z,19.55
2022-10-11T02:41:08.617Z,19.55
2022-10-11T02:41:40.010Z,19.56
2022-10-11T02:42:11.426Z,19.55
2022-10-11T02:42:42.826Z,19.55
2022-10-11T02:43:14.215Z,19.55
2022-10-11T02:43:45.608Z,19.54
2022-10-11T02:44:16.992Z,19.55
2022-10-11T02:44:48.477Z,19.55
2022-10-11T02:45:19.868Z,19.55
2022-10-11T02:45:51.360Z,19.55
2022-10-11T02:46:22.759Z,19.54
2022-10-11T02:46:54.232Z,19.54
2022-10-11T02:47:25.639Z,19.54
2022-10-11T02:47:57.032Z,19.55
2022-10-11T02:48:28.419Z,19.54
2022-10-11T02:48:59.828Z,19.54
2022-10-11T02:49:31.223Z,19.54
2022-10-11T02:50:02.645Z,19.54
2022-10-11T02:50:34.211Z,19.54
2022-10-11T02:51:05.613Z,19.54
2022-10-11T02:51:37.004Z,19.54
2022-10-11T02:52:08.417Z,19.53
2022-10-11T02:52:39.809Z,19.53
2022-10-11T02:53:11.233Z,19.53
2022-10-11T02:53:42.640Z,19.54
2022-10-11T02:54:14.022Z,19.53
2022-10-11T02:54:45.404Z,19.53
2022-10-11T02:55:16.924Z,19.53
2022-10-11T02:55:48.325Z,19.53
2022-10-11T02:56:19.715Z,19.54
2022-10-11T02:56:51.100Z,19.53
2022-10-11T02:57:22.480Z,19.53
2022-10-11T02:57:53.864Z,19.53
2022-10-11T02:58:25.275Z,19.52
2022-10-11T02:58:56.665Z,19.52
2022-10-11T02:59:28.059Z,19.53
2022-10-11T02:59:59.470Z,19.52
2022-10-11T03:00:30.961Z,19.52
2022-10-11T03:01:02.351Z,19.52
2022-10-11T03:01:33.813Z,19.50
2022-10-11T03:02:05.348Z,19.52
2022-10-11T03:02:36.777Z,19.51
2022-10-11T03:03:08.163Z,19.51
2022-10-11T03:03:39.552Z,19.52
2022-10-11T03:04:10.949Z,19.50
2022-10-11T03:04:42.292Z,19.50
2022-10-11T03:05:13.715Z,19.50
2022-10-11T03:05:45.267Z,19.49
2022-10-11T03:06:16.757Z,19.49
2022-10-11T03:06:48.148Z,19.49
2022-10-11T03:07:19.537Z,19.49
2022-10-11T03:07:50.924Z,19.49
2022-10-11T03:08:22.308Z,19.49
2022-10-11T03:08:53.691Z,19.49
2022-10-11T03:09:25.098Z,19.48
2022-10-11T03:09:56.490Z,19.48
2022-10-11T03:10:27.893Z,19.48
2022-10-11T03:10:59.401Z,19.47
2022-10-11T03:11:30.794Z,19.48
2022-10-11T03:12:02.197Z,19.47
2022-10-11T03:12:33.580Z,19.48
2022-10-11T03:13:04.963Z,19.47
2022-10-11T03:13:36.376Z,19.47
2022-10-11T03:14:07.768Z,19.46
2022-10-11T03:14:39.152Z,19.47
2022-10-11T03:15:10.536Z,19.46
2022-10-11T03:15:41.925Z,19.46
2022-10-11T03:16:13.732Z,19.46
2022-10-11T03:16:45.476Z,19.46
2022-10-11T03:17:35.622Z,19.46
2022-10-11T03:18:07.848Z,19.45
2022-10-11T03:18:39.237Z,19.46
2022-10-11T03:19:10.636Z,19.45
2022-10-11T03:19:42.032Z,19.45
2022-10-11T03:20:13.420Z,19.45
2022-10-11T03:20:44.807Z,19.45
2022-10-11T03:21:16.353Z,19.44
2022-10-11T03:21:47.747Z,19.45
2022-10-11T03:22:19.156Z,19.44
2022-10-11T03:22:50.563Z,19.44
2022-10-11T03:23:21.948Z,19.44
2022-10-11T03:23:53.332Z,19.43
2022-10-11T03:24:24.788Z,19.42
2022-10-11T03:25:00.996Z,19.44
2022-10-11T03:25:34.917Z,19.42
2022-10-11T03:26:06.655Z,19.44
2022-10-11T03:26:38.405Z,19.42
2022-10-11T03:27:09.797Z,19.42
2022-10-11T03:27:41.196Z,19.43
2022-10-11T03:28:12.624Z,19.42
2022-10-11T03:28:44.117Z,19.42
2022-10-11T03:29:15.557Z,19.43
2022-10-11T03:29:46.943Z,19.43
2022-10-11T03:30:18.605Z,19.42
2022-10-11T03:30:50.033Z,19.42
2022-10-11T03:31:21.436Z,19.42
2022-10-11T03:31:52.849Z,19.42
2022-10-11T03:32:24.253Z,19.42
2022-10-11T03:32:55.655Z,19.42
2022-10-11T03:33:27.042Z,19.41
2022-10-11T03:33:58.429Z,19.41
2022-10-11T03:34:29.821Z,19.41
2022-10-11T03:35:01.220Z,19.41
2022-10-11T03:35:32.618Z,19.41
2022-10-11T03:36:04.293Z,19.40
2022-10-11T03:36:35.908Z,19.40
2022-10-11T03:37:07.362Z,19.39
2022-10-11T03:37:38.761Z,19.39
2022-10-11T03:38:12.912Z,19.39
2022-10-11T03:38:44.449Z,19.39
2022-10-11T03:39:15.842Z,19.39
2022-10-11T03:39:47.264Z,19.39
2022-10-11T03:40:18.653Z,19.39
2022-10-11T03:40:50.044Z,19.38
2022-10-11T03:41:21.453Z,19.37
2022-10-11T03:41:52.848Z,19.38
2022-10-11T03:42:24.369Z,19.37
2022-10-11T03:42:55.755Z,19.36
2022-10-11T03:43:27.165Z,19.36
2022-10-11T03:43:58.556Z,19.36
2022-10-11T03:44:29.944Z,19.36
2022-10-11T03:45:01.381Z,19.36
2022-10-11T03:45:32.778Z,19.36
2022-10-11T03:46:04.477Z,19.35
2022-10-11T03:46:36.078Z,19.36
2022-10-11T03:47:07.469Z,19.34
2022-10-11T03:47:38.937Z,19.34
2022-10-11T03:48:10.349Z,19.34
2022-10-11T03:48:41.741Z,19.35
2022-10-11T03:49:13.125Z,19.34
2022-10-11T03:49:44.526Z,19.34
2022-10-11T03:50:15.924Z,19.36
2022-10-11T03:50:47.334Z,19.34
2022-10-11T03:51:18.716Z,19.34
2022-10-11T03:51:50.103Z,19.35
2022-10-11T03:52:21.492Z,19.34
2022-10-11T03:52:53.004Z,19.35
2022-10-11T03:53:24.384Z,19.34
2022-10-11T03:53:55.778Z,19.34
2022-10-11T03:54:27.201Z,19.34
2022-10-11T03:54:58.587Z,19.34
2022-10-11T03:55:29.977Z,19.34
2022-10-11T03:56:05.887Z,19.34
2022-10-11T03:56:39.573Z,19.33
2022-10-11T03:57:10.972Z,19.34
2022-10-11T03:57:42.369Z,19.34
2022-10-11T03:58:13.853Z,19.33
2022-10-11T03:58:45.260Z,19.33
2022-10-11T03:59:16.652Z,19.33
2022-10-11T03:59:48.061Z,19.32
2022-10-11T04:00:19.443Z,19.32
2022-10-11T04:00:50.832Z,19.32
2022-10-11T04:01:22.250Z,19.32
2022-10-11T04:01:53.804Z,19.32
2022-10-11T04:02:25.226Z,19.32
2022-10-11T04:02:56.613Z,19.32
2022-10-11T04:03:28.186Z,19.32
2022-10-11T04:03:59.597Z,19.31
2022-10-11T04:04:30.989Z,19.31
2022-10-11T04:05:02.381Z,19.30
2022-10-11T04:05:33.774Z,19.31
2022-10-11T04:06:05.329Z,19.31
2022-10-11T04:06:36.914Z,19.31
2022-10-11T04:07:08.329Z,19.32
2022-10-11T04:07:39.717Z,19.30
2022-10-11T04:08:12.367Z,19.31
2022-10-11T04:08:43.990Z,19.30
2022-10-11T04:09:15.388Z,19.30
2022-10-11T04:09:46.781Z,19.31
2022-10-11T04:10:18.173Z,19.30
2022-10-11T04:10:49.560Z,19.30
2022-10-11T04:11:20.952Z,19.30
2022-10-11T04:11:52.359Z,19.29
2022-10-11T04:12:23.754Z,19.30
2022-10-11T04:12:55.140Z,19.29
2022-10-11T04:13:26.531Z,19.29
2022-10-11T04:13:57.923Z,19.29
2022-10-11T04:14:29.307Z,19.29
2022-10-11T04:15:00.696Z,19.28
2022-10-11T04:15:32.095Z,19.29
2022-10-11T04:16:03.879Z,19.29
2022-10-11T04:16:35.568Z,19.28
2022-10-11T04:17:06.975Z,19.28
2022-10-11T04:17:38.365Z,19.28
2022-10-11T04:18:09.785Z,19.29
2022-10-11T04:18:41.211Z,19.28
2022-10-11T04:19:12.633Z,19.28
2022-10-11T04:19:44.045Z,19.28
2022-10-11T04:20:15.441Z,19.28
2022-10-11T04:20:46.849Z,19.28
2022-10-11T04:21:18.241Z,19.28
2022-10-11T04:21:49.648Z,19.27
2022-10-11T04:22:21.040Z,19.27
2022-10-11T04:22:52.440Z,19.28
2022-10-11T04:23:23.840Z,19.26
2022-10-11T04:23:55.232Z,19.27
2022-10-11T04:24:26.676Z,19.28
2022-10-11T04:24:58.059Z,19.27
2022-10-11T04:25:29.473Z,19.27
2022-10-11T04:26:01.173Z,19.27
2022-10-11T04:26:32.864Z,19.27
2022-10-11T04:27:04.333Z,19.26
2022-10-11T04:27:35.741Z,19.25
2022-10-11T04:28:07.243Z,19.26
2022-10-11T04:28:38.736Z,19.25
2022-10-11T04:29:10.267Z,19.25
2022-10-11T04:29:41.660Z,19.24
2022-10-11T04:30:13.072Z,19.25
2022-10-11T04:30:44.465Z,19.24
2022-10-11T04:31:15.868Z,19.25
2022-10-11T04:31:47.298Z,19.25
2022-10-11T04:32:18.709Z,19.25
2022-10-11T04:32:50.116Z,19.24
2022-10-11T04:33:21.508Z,19.25
2022-10-11T04:33:52.901Z,19.24
2022-10-11T04:34:24.313Z,19.24
2022-10-11T04:34:55.695Z,19.23
2022-10-11T04:35:27.097Z,19.22
2022-10-11T04:35:58.494Z,19.23
2022-10-11T04:36:29.893Z,19.22
2022-10-11T04:37:01.286Z,19.22
2022-10-11T04:37:32.667Z,19.22
2022-10-11T04:38:04.061Z,19.23
2022-10-11T04:38:35.453Z,19.21
2022-10-11T04:39:06.844Z,19.23
2022-10-11T04:39:38.348Z,19.23
2022-10-11T04:40:09.735Z,19.22
2022-10-11T04:40:41.140Z,19.22
2022-10-11T04:41:12.547Z,19.23
2022-10-11T04:41:43.948Z,19.21
2022-10-11T04:42:15.338Z,19.22
2022-10-11T04:42:46.740Z,19.22
2022-10-11T04:43:18.140Z,19.21
2022-10-11T04:43:49.529Z,19.21
2022-10-11T04:44:20.918Z,19.21
2022-10-11T04:44:52.356Z,19.21
2022-10-11T04:45:23.749Z,19.21
2022-10-11T04:45:55.647Z,19.20
2022-10-11T04:46:27.084Z,19.20
2022-10-11T04:46:58.473Z,19.20
2022-10-11T04:47:29.884Z,19.20
2022-10-11T04:48:01.275Z,19.20
2022-10-11T04:48:32.670Z,19.19
2022-10-11T04:49:04.054Z,19.20
2022-10-11T04:49:35.445Z,19.20
2022-10-11T04:50:06.973Z,19.19
2022-10-11T04:50:38.370Z,19.19
2022-10-11T04:51:09.774Z,19.19
2022-10-11T04:51:41.164Z,19.19
2022-10-11T04:52:12.564Z,19.19
2022-10-11T04:52:43.951Z,19.19
2022-10-11T04:53:15.346Z,19.19
2022-10-11T04:53:46.737Z,19.19
2022-10-11T04:54:18.129Z,19.18
2022-10-11T04:54:49.539Z,19.18
2022-10-11T04:55:21.045Z,19.19
2022-10-11T04:55:52.435Z,19.18
2022-10-11T04:56:23.868Z,19.18
2022-10-11T04:56:55.302Z,19.18
2022-10-11T04:57:26.695Z,19.18
2022-10-11T04:57:58.116Z,19.18
2022-10-11T04:58:29.510Z,19.18
2022-10-11T04:59:00.935Z,19.17
2022-10-11T04:59:32.358Z,19.18
2022-10-11T05:00:03.758Z,19.17
2022-10-11T05:00:35.195Z,19.18
2022-10-11T05:01:06.586Z,19.17
2022-10-11T05:01:38.029Z,19.17
2022-10-11T05:02:09.531Z,19.18
2022-10-11T05:02:40.972Z,19.17
2022-10-11T05:03:12.362Z,19.17
2022-10-11T05:03:43.769Z,19.17
2022-10-11T05:04:15.156Z,19.17
2022-10-11T05:04:46.557Z,19.15
2022-10-11T05:05:17.971Z,19.17
2022-10-11T05:05:49.456Z,19.16
2022-10-11T05:06:20.866Z,19.16
2022-10-11T05:06:52.257Z,19.16
2022-10-11T05:07:23.664Z,19.16
2022-10-11T05:07:55.054Z,19.15
2022-10-11T05:08:26.442Z,19.16
2022-10-11T05:08:57.828Z,19.16
2022-10-11T05:09:29.216Z,19.15
2022-10-11T05:10:00.618Z,19.15
2022-10-11T05:10:32.010Z,19.16
2022-10-11T05:11:03.519Z,19.14
2022-10-11T05:11:34.908Z,19.15
2022-10-11T05:12:06.326Z,19.16
2022-10-11T05:12:37.721Z,19.15
2022-10-11T05:13:09.116Z,19.15
2022-10-11T05:13:40.507Z,19.16
2022-10-11T05:14:11.933Z,19.16
2022-10-11T05:14:43.315Z,19.14
2022-10-11T05:15:14.708Z,19.15
2022-10-11T05:15:46.100Z,19.15
2022-10-11T05:16:18.020Z,19.15
2022-10-11T05:16:49.613Z,19.14
2022-10-11T05:17:21.017Z,19.14
2022-10-11T05:17:52.414Z,19.14
2022-10-11T05:18:23.805Z,19.14
2022-10-11T05:18:55.195Z,19.14
2022-10-11T05:19:26.580Z,19.13
2022-10-11T05:19:57.983Z,19.13
2022-10-11T05:20:29.384Z,19.13
2022-10-11T05:21:00.771Z,19.13
2022-10-11T05:21:32.287Z,19.12
2022-10-11T05:22:03.710Z,19.13
2022-10-11T05:22:35.111Z,19.13
2022-10-11T05:23:06.488Z,19.12
2022-10-11T05:23:37.891Z,19.13
2022-10-11T05:24:09.287Z,19.13
2022-10-11T05:24:40.708Z,19.11
2022-10-11T05:25:12.105Z,19.12
2022-10-11T05:25:43.498Z,19.12
2022-10-11T05:26:14.901Z,19.12
2022-10-11T05:26:46.439Z,19.12
2022-10-11T05:27:17.846Z,19.11
2022-10-11T05:27:49.239Z,19.12
2022-10-11T05:28:20.713Z,19.11
2022-10-11T05:28:52.246Z,19.11
2022-10-11T05:29:23.711Z,19.12
2022-10-11T05:29:55.138Z,19.11
2022-10-11T05:30:26.562Z,19.11
2022-10-11T05:30:57.956Z,19.11
2022-10-11T05:31:29.346Z,19.10
2022-10-11T05:32:00.886Z,19.11
2022-10-11T05:32:32.281Z,19.11
2022-10-11T05:33:03.672Z,19.10
2022-10-11T05:33:35.139Z,19.10
2022-10-11T05:34:06.528Z,19.10
2022-10-11T05:34:37.916Z,19.10
2022-10-11T05:35:09.312Z,19.09
2022-10-11T05:35:40.719Z,19.09
2022-10-11T05:36:12.123Z,19.10
2022-10-11T05:36:43.511Z,19.09
2022-10-11T05:37:14.946Z,19.09
2022-10-11T05:37:46.355Z,19.09
2022-10-11T05:38:18.047Z,19.10
2022-10-11T05:38:49.449Z,19.10
2022-10-11T05:39:20.840Z,19.08
2022-10-11T05:39:52.244Z,19.09
2022-10-11T05:40:23.629Z,19.07
2022-10-11T05:40:55.025Z,19.08
2022-10-11T05:41:26.423Z,19.08
2022-10-11T05:41:57.821Z,19.07
2022-10-11T05:42:29.304Z,19.07
2022-10-11T05:43:00.697Z,19.06
2022-10-11T05:43:32.099Z,19.07
2022-10-11T05:44:03.498Z,19.07
2022-10-11T05:44:34.917Z,19.07
2022-10-11T05:45:06.308Z,19.06
2022-10-11T05:45:37.706Z,19.07
2022-10-11T05:46:09.374Z,19.08
2022-10-11T05:46:40.849Z,19.07
2022-10-11T05:47:12.258Z,19.07
2022-10-11T05:47:43.797Z,19.07
2022-10-11T05:48:15.184Z,19.07
2022-10-11T05:48:46.572Z,19.06
2022-10-11T05:49:17.975Z,19.07
2022-10-11T05:49:49.372Z,19.07
2022-10-11T05:50:24.106Z,19.06
2022-10-11T05:50:55.929Z,19.06
2022-10-11T05:51:27.470Z,19.06
2022-10-11T05:51:58.867Z,19.06
2022-10-11T05:52:30.397Z,19.06
2022-10-11T05:53:01.807Z,19.06
2022-10-11T05:53:33.198Z,19.07
2022-10-11T05:54:04.585Z,19.06
2022-10-11T05:54:35.980Z,19.06
2022-10-11T05:55:07.373Z,19.07
2022-10-11T05:55:38.755Z,19.06
2022-10-11T05:56:10.137Z,19.06
2022-10-11T05:56:41.519Z,19.05
2022-10-11T05:57:12.900Z,19.06
2022-10-11T05:57:44.354Z,19.06
2022-10-11T05:58:15.761Z,19.06
2022-10-11T05:58:47.148Z,19.07
2022-10-11T05:59:18.532Z,19.06
2022-10-11T05:59:49.941Z,19.05
2022-10-11T06:00:21.343Z,19.06
2022-10-11T06:00:52.954Z,19.06
2022-10-11T06:01:24.531Z,19.05
2022-10-11T06:01:56.188Z,19.06
2022-10-11T06:02:28.393Z,19.07
2022-10-11T06:03:00.256Z,19.08
2022-10-11T06:03:31.857Z,19.07
2022-10-11T06:04:03.369Z,19.06
2022-10-11T06:04:39.853Z,19.07
2022-10-11T06:05:11.387Z,19.07
2022-10-11T06:05:43.406Z,19.07
2022-10-11T06:06:16.458Z,19.07
2022-10-11T06:06:47.845Z,19.07
2022-10-11T06:07:19.249Z,19.08
2022-10-11T06:07:50.653Z,19.08
2022-10-11T06:08:22.096Z,19.07
2022-10-11T06:08:53.483Z,19.09
2022-10-11T06:09:24.892Z,19.09
2022-10-11T06:09:56.275Z,19.07
2022-10-11T06:10:27.710Z,19.10
2022-10-11T06:10:59.144Z,19.07
2022-10-11T06:11:30.552Z,19.08
2022-10-11T06:12:01.964Z,19.10
2022-10-11T06:12:33.383Z,19.10
2022-10-11T06:13:04.826Z,19.09
2022-10-11T06:13:36.208Z,19.10
2022-10-11T06:14:07.599Z,19.07
2022-10-11T06:14:38.990Z,19.11
2022-10-11T06:15:10.377Z,19.10
2022-10-11T06:15:41.766Z,19.11
2022-10-11T06:16:13.175Z,19.10
2022-10-11T06:16:44.577Z,19.11
2022-10-11T06:17:15.999Z,19.12
2022-10-11T06:17:49.520Z,19.11
2022-10-11T06:18:21.048Z,19.12
2022-10-11T06:18:52.513Z,19.11
2022-10-11T06:19:23.938Z,19.12
2022-10-11T06:19:55.532Z,19.11
2022-10-11T06:20:26.944Z,19.12
2022-10-11T06:20:58.688Z,19.13
2022-10-11T06:21:30.306Z,19.13
2022-10-11T06:22:02.104Z,19.13
2022-10-11T06:22:33.789Z,19.13
2022-10-11T06:23:13.752Z,19.13
2022-10-11T06:23:46.677Z,19.13
2022-10-11T06:24:18.509Z,19.13
2022-10-11T06:24:50.356Z,19.14
2022-10-11T06:25:22.129Z,19.14
2022-10-11T06:25:53.598Z,19.14
2022-10-11T06:26:25.243Z,19.14
2022-10-11T06:26:56.678Z,19.14
2022-10-11T06:27:28.171Z,19.14
2022-10-11T06:27:59.706Z,19.15
2022-10-11T06:28:31.156Z,19.15
2022-10-11T06:29:02.808Z,19.14
2022-10-11T06:29:34.486Z,19.16
2022-10-11T06:30:06.133Z,19.15
2022-10-11T06:30:37.692Z,19.17
2022-10-11T06:31:09.141Z,19.15
2022-10-11T06:31:40.703Z,19.15
2022-10-11T06:32:12.163Z,19.17
2022-10-11T06:32:43.585Z,19.17
2022-10-11T06:33:15.184Z,19.17
2022-10-11T06:33:46.832Z,19.17
2022-10-11T06:34:18.337Z,19.17
2022-10-11T06:34:49.833Z,19.18
2022-10-11T06:35:21.454Z,19.16
2022-10-11T06:35:53.231Z,19.18
2022-10-11T06:36:24.707Z,19.19
2022-10-11T06:36:56.165Z,19.19
2022-10-11T06:37:28.532Z,19.19
2022-10-11T06:38:00.120Z,19.19
2022-10-11T06:38:31.623Z,19.20
2022-10-11T06:39:03.451Z,19.20
2022-10-11T06:39:35.158Z,19.20
2022-10-11T06:40:06.724Z,19.21
2022-10-11T06:40:38.324Z,19.21
2022-10-11T06:41:09.728Z,19.20
2022-10-11T06:41:41.220Z,19.20
2022-10-11T06:42:12.675Z,19.21
2022-10-11T06:42:44.066Z,19.23
2022-10-11T06:43:15.527Z,19.23
2022-10-11T06:43:47.345Z,19.23
2022-10-11T06:44:18.991Z,19.24
2022-10-11T06:44:50.394Z,19.23
2022-10-11T06:45:21.920Z,19.24
2022-10-11T06:45:53.321Z,19.24
2022-10-11T06:46:24.718Z,19.24